Latest Coastal Weather Observations for Point Stuart

IDD60701

Issued at 3:51 pm CST Wednesday 2 September 2015 (issued every 10 minutes, with the page automatically refreshed every 10 minutes)

About coastal observations | Map of coastal stations | Coastal observations for NT | Marine services | Other Formats
Station Details ID: 014254 Name: POINT STUART Lat: -12.24 Lon: 131.88 Height: 1.0 m
Data from the previous 72 hours. | See also: Recent months at Point Stuart
Date/Time
CST
Temp

°C
Wind Pressure Rain
since 9am
mm
Weather Cloud Vis
km
Sea
Height
m
Swell
Dir
 
Speed
knots
Gust
knots
hPa Trend Height
m
Period
s
Dir
02/03:30pm 31.0 NNW 9 14 1011.5 - 0.0 - - - - - - -
02/03:00pm 32.4 NNW 11 15 1011.8 - 0.0 - - - - - - -
02/02:30pm 33.0 NNW 10 16 1012.2 - 0.0 - - - - - - -
02/02:00pm 32.8 NNW 11 15 1012.7 - 0.0 - - - - - - -
02/01:30pm 32.5 NNW 10 15 1013.3 - 0.0 - - - - - - -
02/01:00pm 33.1 NNW 10 14 1013.8 - 0.0 - - - - - - -
02/12:30pm 32.3 NNW 10 15 1014.3 - 0.0 - - - - - - -
02/12:00pm 32.2 NNW 9 13 1015.0 - 0.0 - - - - - - -
02/11:30am 32.4 NW 9 12 1015.4 - 0.0 - - - - - - -
02/11:00am 32.4 WNW 9 17 1015.8 - 0.0 - - - - - - -
02/10:30am 31.1 S 6 11 1016.0 - 0.0 - - - - - - -
02/10:00am 30.4 SSW 8 13 1016.2 - 0.0 - - - - - - -
02/09:30am 29.2 SSW 10 14 1016.1 - 0.0 - - - - - - -
02/09:00am 27.9 SSW 8 10 1016.2 - 0.0 - - - - - - -
02/08:30am 25.7 S 4 5 1016.1 - 0.0 - - - - - - -
02/08:00am 23.1 SE 1 3 1015.8 - 0.0 - - - - - - -
02/07:30am 21.7 ESE 3 4 1015.7 - 0.0 - - - - - - -
02/07:00am 20.1 S 1 4 1015.4 - 0.0 - - - - - - -
02/06:30am 20.1 CALM 0 0 1014.9 - 0.0 - - - - - - -
02/06:00am 20.7 CALM 0 0 1014.2 - 0.0 - - - - - - -
02/05:30am 21.1 CALM 0 0 1013.8 - 0.0 - - - - - - -
02/05:00am 21.3 CALM 0 3 1013.8 - 0.0 - - - - - - -
02/04:30am 21.8 SSW 2 3 1013.8 - 0.0 - - - - - - -
02/04:00am 22.0 SSW 3 3 1013.7 - 0.0 - - - - - - -
02/03:30am 22.2 SSW 3 4 1013.8 - 0.0 - - - - - - -
02/03:00am 22.5 SSW 3 4 1013.7 - 0.0 - - - - - - -
02/02:30am 22.9 SSW 4 5 1013.9 - 0.0 - - - - - - -
02/02:00am 23.1 SW 6 7 1013.8 - 0.0 - - - - - - -
02/01:30am 23.4 WSW 6 6 1014.0 - 0.0 - - - - - - -
02/01:00am 23.5 WSW 6 7 1014.1 - 0.0 - - - - - - -
02/12:30am 24.0 SW 5 6 1014.3 - 0.0 - - - - - - -
02/12:00am 24.9 SW 4 6 1014.4 - 0.0 - - - - - - -
 
Date/Time
CST
Temp

°C
Wind Pressure Rain
since 9am
mm
Weather Cloud Vis
km
Sea
Height
m
Swell
Dir
 
Speed
knots
Gust
knots
hPa Trend Height
m
Period
s
Dir
01/11:30pm 26.3 W 9 11 1014.1 - 0.0 - - - - - - -
01/11:00pm 26.4 W 7 9 1014.0 - 0.0 - - - - - - -
01/10:30pm 26.8 WNW 10 13 1013.8 - 0.0 - - - - - - -
01/10:00pm 26.7 WNW 11 15 1013.8 - 0.0 - - - - - - -
01/09:30pm 26.9 NW 12 15 1013.5 - 0.0 - - - - - - -
01/09:00pm 26.8 NW 12 15 1013.2 - 0.0 - - - - - - -
01/08:30pm 26.7 NW 10 14 1012.7 - 0.0 - - - - - - -
01/08:00pm 26.1 NNW 8 11 1012.1 - 0.0 - - - - - - -
01/07:30pm 26.3 NNW 7 10 1011.7 - 0.0 - - - - - - -
01/07:00pm 26.6 NNW 5 8 1011.2 - 0.0 - - - - - - -
01/06:30pm 27.4 NNW 5 8 1011.1 - 0.0 - - - - - - -
01/06:00pm 28.4 NNW 7 11 1010.9 - 0.0 - - - - - - -
01/05:30pm 29.4 NNW 7 11 1010.8 - 0.0 - - - - - - -
01/05:00pm 29.7 NNW 7 10 1010.7 - 0.0 - - - - - - -
01/04:30pm 31.1 NNW 8 12 1010.6 - 0.0 - - - - - - -
01/04:00pm 31.4 NNW 8 13 1010.8 - 0.0 - - - - - - -
01/03:30pm 30.9 N 8 13 1011.2 - 0.0 - - - - - - -
01/03:00pm 31.0 NNW 8 12 1011.6 - 0.0 - - - - - - -
01/02:30pm 31.1 NNW 7 13 1012.0 - 0.0 - - - - - - -
01/02:00pm 31.6 NNW 7 11 1012.5 - 0.0 - - - - - - -
01/01:30pm 32.0 NW 7 11 1013.0 - 0.0 - - - - - - -
01/01:00pm 30.8 NNW 7 11 1013.5 - 0.0 - - - - - - -
01/12:30pm 31.5 NNW 8 11 1013.9 - 0.0 - - - - - - -
01/12:00pm 30.9 NNW 7 11 1014.3 - 0.0 - - - - - - -
01/11:30am 31.4 NNW 7 11 1014.6 - 0.0 - - - - - - -
01/11:00am 30.5 NNW 7 11 1015.1 - 0.0 - - - - - - -
01/10:30am 29.4 N 5 8 1015.3 - 0.0 - - - - - - -
01/10:00am 28.3 NNW 2 5 1015.5 - 0.0 - - - - - - -
01/09:30am 27.7 WNW 3 5 1015.5 - 0.0 - - - - - - -
01/09:00am 27.7 SSE 4 6 1015.5 - 0.0 - - - - - - -
01/08:30am 26.4 S 4 5 1015.2 - 0.0 - - - - - - -
01/08:00am 24.4 CALM 0 0 1014.9 - 0.0 - - - - - - -
01/07:30am 22.6 CALM 0 0 1014.5 - 0.0 - - - - - - -
01/07:00am 21.6 CALM 0 0 1014.1 - 0.0 - - - - - - -
01/06:30am 22.0 SSW 5 6 1013.8 - 0.0 - - - - - - -
01/06:00am 22.0 SSW 5 5 1013.6 - 0.0 - - - - - - -
01/05:30am 22.0 SSW 4 4 1013.3 - 0.0 - - - - - - -
01/05:00am 22.3 SSW 3 3 1013.1 - 0.0 - - - - - - -
01/04:30am 22.3 SSW 4 5 1013.1 - 0.0 - - - - - - -
01/04:00am 22.2 SSW 4 5 1013.2 - 0.0 - - - - - - -
01/03:30am 22.3 SW 4 5 1013.4 - 0.0 - - - - - - -
01/03:00am 22.4 SW 5 6 1013.4 - 0.0 - - - - - - -
01/02:30am 22.9 SW 5 6 1013.5 - 0.0 - - - - - - -
01/02:00am 23.5 SW 8 9 1013.7 - 0.0 - - - - - - -
01/01:30am 24.2 SSW 4 5 1013.9 - 0.0 - - - - - - -
01/01:00am 24.6 SSW 4 5 1014.2 - 0.0 - - - - - - -
01/12:30am 24.9 S 4 4 1014.4 - 0.0 - - - - - - -
01/12:00am 25.9 WNW 5 7 1014.4 - 0.0 - - - - - - -
 
Date/Time
CST
Temp

°C
Wind Pressure Rain
since 9am
mm
Weather Cloud Vis
km
Sea
Height
m
Swell
Dir
 
Speed
knots
Gust
knots
hPa Trend Height
m
Period
s
Dir
31/11:30pm 26.1 WNW 7 8 1014.3 - 0.0 - - - - - - -
31/11:00pm 26.5 WNW 8 11 1014.0 - 0.0 - - - - - - -
31/10:30pm 26.5 WNW 11 14 1013.8 - 0.0 - - - - - - -
31/10:00pm 26.4 NW 10 14 1013.7 - 0.0 - - - - - - -
31/09:30pm 26.2 NW 8 11 1013.5 - 0.0 - - - - - - -
31/09:00pm 26.1 NNW 7 9 1013.3 - 0.0 - - - - - - -
31/08:30pm 26.2 NNW 6 8 1013.0 - 0.0 - - - - - - -
31/08:00pm 26.7 NNW 5 8 1012.6 - 0.0 - - - - - - -
31/07:30pm 26.6 N 4 6 1012.0 - 0.0 - - - - - - -
31/07:00pm 27.1 N 5 7 1011.7 - 0.0 - - - - - - -
31/06:30pm 28.1 NNW 5 7 1011.5 - 0.0 - - - - - - -
31/06:00pm 29.1 N 6 10 1011.4 - 0.0 - - - - - - -
31/05:30pm 30.3 NNW 7 11 1011.2 - 0.0 - - - - - - -
31/05:00pm 31.0 NNW 9 12 1011.2 - 0.0 - - - - - - -
31/04:30pm 31.0 NNW 9 14 1011.2 - 0.0 - - - - - - -
31/04:00pm 31.9 NNW 9 13 1011.4 - 0.0 - - - - - - -
31/03:30pm 32.0 N 8 12 1011.8 - 0.0 - - - - - - -
31/03:00pm 31.0 N 7 12 1012.1 - 0.0 - - - - - - -
31/02:30pm 30.9 N 8 13 1012.6 - 0.0 - - - - - - -
31/02:00pm 30.8 N 9 13 1013.1 - 0.0 - - - - - - -
31/01:30pm 30.5 N 8 13 1013.5 - 0.0 - - - - - - -
31/01:00pm 30.7 N 8 12 1013.8 - 0.0 - - - - - - -
31/12:30pm 30.6 N 7 12 1014.3 - 0.0 - - - - - - -
31/12:00pm 30.1 NE 8 11 1014.8 - 0.0 - - - - - - -
31/11:30am 30.5 NE 7 11 1015.4 - 0.0 - - - - - - -
31/11:00am 29.2 E 7 10 1015.9 - 0.0 - - - - - - -
31/10:30am 29.0 NE 7 11 1016.1 - 0.0 - - - - - - -
31/10:00am 29.2 NE 7 11 1015.9 - 0.0 - - - - - - -
31/09:30am 28.0 NNE 7 11 1015.8 - 0.0 - - - - - - -
31/09:00am 28.0 NNE 8 12 1015.5 - 0.0 - - - - - - -
31/08:30am 26.9 N 7 9 1015.5 - 0.0 - - - - - - -
31/08:00am 26.3 N 6 9 1015.1 - 0.0 - - - - - - -
31/07:30am 24.7 NNE 4 7 1014.9 - 0.0 - - - - - - -
31/07:00am 22.0 NNE 5 6 1014.7 - 0.0 - - - - - - -
31/06:30am 21.3 NNE 4 5 1014.5 - 0.0 - - - - - - -
31/06:00am 21.7 NNE 3 4 1014.1 - 0.0 - - - - - - -
31/05:30am 21.9 NNE 3 4 1013.9 - 0.0 - - - - - - -
31/05:00am 23.3 NNE 4 5 1013.9 - 0.0 - - - - - - -
31/04:30am 22.2 NNE 4 6 1014.0 - 0.0 - - - - - - -
31/04:00am 21.7 NNE 3 4 1014.2 - 0.0 - - - - - - -
31/03:30am 21.9 NNE 3 4 1014.3 - 0.0 - - - - - - -
31/03:00am 22.6 NNE 2 3 1014.3 - 0.0 - - - - - - -
31/02:30am 23.0 NNE 4 5 1014.7 - 0.0 - - - - - - -
31/02:00am 23.3 N 3 4 1014.9 - 0.0 - - - - - - -
31/01:30am 23.6 NE 4 5 1015.1 - 0.0 - - - - - - -
31/01:00am 23.8 NE 4 5 1015.2 - 0.0 - - - - - - -
31/12:30am 24.6 N 6 8 1015.3 - 0.0 - - - - - - -
31/12:00am 24.4 NNE 4 6 1015.5 - 0.0 - - - - - - -
 
Date/Time
CST
Temp

°C
Wind Pressure Rain
since 9am
mm
Weather Cloud Vis
km
Sea
Height
m
Swell
Dir
 
Speed
knots
Gust
knots
hPa Trend Height
m
Period
s
Dir
30/11:30pm 24.2 NNE 4 5 1015.5 - 0.0 - - - - - - -
30/11:00pm 24.1 NNE 3 4 1015.4 - 0.0 - - - - - - -
30/10:30pm 24.9 CALM 0 0 1015.1 - 0.0 - - - - - - -
30/10:00pm 25.5 N 2 4 1014.9 - 0.0 - - - - - - -
30/09:30pm 25.8 NNW 4 5 1014.4 - 0.0 - - - - - - -
30/09:00pm 26.2 N 6 9 1014.0 - 0.0 - - - - - - -
30/08:30pm 26.3 N 6 10 1013.5 - 0.0 - - - - - - -
30/08:00pm 26.4 N 7 11 1013.2 - 0.0 - - - - - - -
30/07:30pm 26.6 N 8 15 1012.7 - 0.0 - - - - - - -
30/07:00pm 26.9 N 8 12 1012.5 - 0.0 - - - - - - -
30/06:30pm 28.1 N 5 8 1012.0 - 0.0 - - - - - - -
30/06:00pm 28.8 NNW 7 11 1011.8 - 0.0 - - - - - - -
30/05:30pm 29.4 NNW 8 12 1011.7 - 0.0 - - - - - - -
30/05:00pm 31.3 NNW 7 11 1011.5 - 0.0 - - - - - - -
30/04:30pm 31.2 NNW 7 11 1011.3 - 0.0 - - - - - - -
30/04:00pm 32.3 N 7 10 1011.4 - 0.0 - - - - - - -

Other Formats:

Comma delimited format used in spreadsheet applications
http://www.bom.gov.au/fwo/IDD60701/IDD60701.94127.axf

JavaScript Object Notation format (JSON) in row-major order
http://www.bom.gov.au/fwo/IDD60701/IDD60701.94127.json